Time;durP1;ratioP1;P1;durP2;ratioP2;P2;SDS_P1;SDS_P2;PMS_P1;PMS_P2;Temp;Humidity;BMP_temperature;BMP_pressure;BME280_temperature;BME280_humidity;BME280_pressure;Samples;Min_cycle;Max_cycle;Signal;HPM_P1;HPM_P2
2023/01/26 00:02:08;;;;;;;37.17;24.53;;;5.30;99.90;;;;;;5097815;28;20202;-86
2023/01/26 00:04:34;;;;;;;41.50;24.10;;;5.40;99.90;;;;;;5116765;28;20171;-83
2023/01/26 00:06:59;;;;;;;39.53;22.33;;;5.40;99.90;;;;;;5116471;28;20371;-83
2023/01/26 00:09:25;;;;;;;37.60;22.50;;;5.40;99.90;;;;;;5115959;28;21126;-83
2023/01/26 00:11:51;;;;;;;39.73;25.20;;;5.40;99.90;;;;;;5097995;28;20386;-83
2023/01/26 00:14:16;;;;;;;37.93;23.60;;;5.40;99.90;;;;;;5098152;28;20219;-83
2023/01/26 00:16:42;;;;;;;39.60;23.17;;;5.50;99.90;;;;;;5097999;28;20668;-82
2023/01/26 00:19:08;;;;;;;33.80;21.30;;;5.30;99.90;;;;;;5097970;28;20195;-83
2023/01/26 00:21:33;;;;;;;41.70;22.60;;;5.20;99.90;;;;;;5097805;28;20654;-85
2023/01/26 00:23:59;;;;;;;41.23;24.70;;;5.10;99.90;;;;;;5098010;28;20208;-83
2023/01/26 00:26:27;;;;;;;41.30;22.87;;;5.00;99.90;;;;;;5097759;28;20255;-84
2023/01/26 00:28:53;;;;;;;36.75;22.90;;;5.00;99.90;;;;;;5097737;28;20636;-86
2023/01/26 00:31:25;;;;;;;30.52;19.58;;;5.10;99.90;;;;;;5097594;28;20232;-85
2023/01/26 00:33:52;;;;;;;34.85;20.85;;;5.20;99.90;;;;;;5097716;28;20695;-83
2023/01/26 00:36:18;;;;;;;36.63;22.00;;;5.30;99.90;;;;;;5097472;28;20175;-83
2023/01/26 00:38:44;;;;;;;37.50;21.80;;;5.30;99.90;;;;;;5115925;28;20218;-83
2023/01/26 00:42:05;;;;;;;35.63;22.57;;;5.20;99.90;;;;;;5115806;28;20845;-82
2023/01/26 00:43:56;;;;;;;34.85;19.73;;;5.20;99.90;;;;;;5115797;28;20448;-85
2023/01/26 00:46:21;;;;;;;38.30;23.53;;;5.30;99.90;;;;;;5115651;28;20343;-85
2023/01/26 00:48:47;;;;;;;34.60;20.10;;;5.30;99.90;;;;;;5115634;28;20414;-86
2023/01/26 00:51:13;;;;;;;37.07;21.57;;;5.30;99.90;;;;;;5097324;28;20667;-83
2023/01/26 00:53:38;;;;;;;38.20;21.93;;;5.40;99.90;;;;;;5116681;28;20211;-84
2023/01/26 00:56:04;;;;;;;40.87;21.20;;;5.40;99.90;;;;;;5098939;28;20172;-84
2023/01/26 00:58:30;;;;;;;38.97;20.65;;;5.40;99.90;;;;;;5115440;28;20199;-86
2023/01/26 01:00:55;;;;;;;37.00;22.93;;;5.40;99.90;;;;;;5097106;28;20531;-85
2023/01/26 01:03:21;;;;;;;38.80;22.63;;;5.40;99.90;;;;;;5115164;28;20279;-83
2023/01/26 01:05:47;;;;;;;36.77;21.20;;;5.40;99.90;;;;;;5097034;28;20184;-82
2023/01/26 01:08:12;;;;;;;39.23;21.03;;;5.50;99.90;;;;;;5114869;28;20813;-86
2023/01/26 01:10:38;;;;;;;34.13;20.97;;;5.50;99.90;;;;;;5115125;28;20271;-86
2023/01/26 01:13:04;;;;;;;32.80;21.00;;;5.50;99.90;;;;;;5096884;28;20557;-87
2023/01/26 01:15:29;;;;;;;32.83;19.90;;;5.40;99.90;;;;;;5096177;28;20224;-83
2023/01/26 01:17:55;;;;;;;34.53;20.20;;;5.40;99.90;;;;;;5114949;28;20729;-83
2023/01/26 01:20:20;;;;;;;40.30;21.33;;;5.50;99.90;;;;;;5114956;28;20168;-85
2023/01/26 01:22:46;;;;;;;38.47;20.87;;;5.50;99.90;;;;;;5096637;28;20202;-82
2023/01/26 01:25:12;;;;;;;36.00;20.30;;;5.50;99.90;;;;;;5096615;28;20583;-83
2023/01/26 01:27:38;;;;;;;39.60;21.23;;;5.40;99.90;;;;;;5114858;28;20676;-83
2023/01/26 01:30:06;;;;;;;37.57;20.03;;;5.40;99.90;;;;;;5117686;28;20211;-86
2023/01/26 01:32:34;;;;;;;35.58;19.50;;;5.40;99.90;;;;;;5115466;28;20191;-83
2023/01/26 01:35:00;;;;;;;39.95;20.77;;;5.40;99.90;;;;;;5096773;28;20184;-83
2023/01/26 01:37:28;;;;;;;34.13;19.30;;;5.40;99.90;;;;;;5096302;28;20236;-82
2023/01/26 01:39:54;;;;;;;37.33;19.15;;;5.30;99.90;;;;;;5115161;28;20176;-83
2023/01/26 01:42:21;;;;;;;34.70;19.30;;;5.40;99.90;;;;;;5114589;28;20194;-83
2023/01/26 01:45:24;;;;;;;37.92;21.17;;;5.40;99.90;;;;;;5096262;28;20180;-82
2023/01/26 01:48:00;;;;;;;32.92;19.70;;;5.30;99.90;;;;;;5096121;28;20258;-83
2023/01/26 01:50:26;;;;;;;31.70;19.08;;;5.30;99.90;;;;;;5114428;28;20675;-82
2023/01/26 01:52:55;;;;;;;30.85;18.38;;;5.30;99.90;;;;;;5096198;28;20617;-83
2023/01/26 01:55:21;;;;;;;37.72;21.25;;;5.30;99.90;;;;;;5114483;28;20646;-83
2023/01/26 01:57:53;;;;;;;38.75;21.17;;;5.30;99.90;;;;;;5114234;28;20566;-86
2023/01/26 02:00:21;;;;;;;35.30;19.58;;;5.30;99.90;;;;;;5096468;28;20184;-83
2023/01/26 02:03:12;;;;;;;37.83;20.45;;;5.30;99.90;;;;;;5114239;28;20271;-86
2023/01/26 02:05:59;;;;;;;32.85;19.35;;;5.30;99.90;;;;;;5095999;28;20179;-86
2023/01/26 02:08:47;;;;;;;43.60;21.73;;;5.20;99.90;;;;;;5113907;28;20588;-83
2023/01/26 02:11:17;;;;;;;39.47;21.10;;;5.30;99.90;;;;;;5114304;28;20168;-86
2023/01/26 02:13:47;;;;;;;39.55;21.48;;;5.20;99.90;;;;;;5114037;28;20242;-83
2023/01/26 02:16:13;;;;;;;36.47;19.88;;;5.30;99.90;;;;;;5095909;28;20195;-83
2023/01/26 02:18:39;;;;;;;36.90;20.70;;;5.20;99.90;;;;;;5095918;28;20212;-83
2023/01/26 02:21:07;;;;;;;40.70;21.67;;;5.20;99.90;;;;;;5114138;28;20172;-83
2023/01/26 02:23:48;;;;;;;35.33;19.70;;;5.20;99.90;;;;;;5097909;28;20206;-83
2023/01/26 02:26:34;;;;;;;40.10;21.95;;;5.20;99.90;;;;;;5100893;28;20167;-89
2023/01/26 02:29:01;;;;;;;37.65;21.40;;;5.20;99.90;;;;;;5099917;28;20211;-86
2023/01/26 02:31:28;;;;;;;43.10;21.95;;;5.30;99.90;;;;;;5118205;28;20191;-83
2023/01/26 02:33:54;;;;;;;39.53;21.00;;;5.30;99.90;;;;;;5099950;28;20207;-83
2023/01/26 02:36:25;;;;;;;37.93;19.27;;;5.20;99.90;;;;;;5118082;28;20189;-86
2023/01/26 02:39:20;;;;;;;41.08;20.45;;;5.20;99.90;;;;;;5099812;28;20957;-85
2023/01/26 02:44:32;;;;;;;38.95;20.73;;;5.10;99.90;;;;;;5118666;28;20191;-83
2023/01/26 02:46:58;;;;;;;40.80;21.92;;;5.10;99.90;;;;;;5099739;28;20175;-86
2023/01/26 02:52:08;;;;;;;40.28;22.00;;;5.10;99.90;;;;;;5118144;28;20198;-83
2023/01/26 02:57:17;;;;;;;45.45;23.88;;;5.00;99.90;;;;;;5117876;28;20229;-84
2023/01/26 02:59:43;;;;;;;38.10;22.67;;;5.00;99.90;;;;;;5118187;28;20586;-86
2023/01/26 03:02:09;;;;;;;41.13;23.00;;;5.00;99.90;;;;;;5117632;28;20192;-82
2023/01/26 03:04:35;;;;;;;43.00;22.27;;;5.10;99.90;;;;;;5120208;28;20180;-83
2023/01/26 03:07:01;;;;;;;39.77;23.60;;;5.10;99.90;;;;;;5100194;28;20193;-83
2023/01/26 03:09:26;;;;;;;40.10;22.83;;;5.20;99.90;;;;;;5098947;28;20231;-83
2023/01/26 03:11:52;;;;;;;38.57;21.03;;;5.20;99.90;;;;;;5099236;28;20632;-86
2023/01/26 03:14:18;;;;;;;42.40;21.87;;;5.10;99.90;;;;;;5099373;28;20188;-86
2023/01/26 03:16:44;;;;;;;42.27;22.40;;;5.10;99.90;;;;;;5117440;28;20190;-84
2023/01/26 03:27:34;;;;;;;39.15;22.30;;;5.10;99.90;;;;;;5117433;28;20333;-85
2023/01/26 03:29:59;;;;;;;40.97;23.08;;;5.00;99.90;;;;;;5117571;28;20226;-86
2023/01/26 03:32:25;;;;;;;43.03;22.90;;;5.10;99.90;;;;;;5117096;28;20192;-83
2023/01/26 03:34:51;;;;;;;39.83;22.37;;;5.10;99.90;;;;;;5099042;28;20225;-85
2023/01/26 03:37:21;;;;;;;39.40;22.17;;;5.10;99.90;;;;;;5116179;28;20398;-86
2023/01/26 03:56:31;;;;;;;42.05;23.58;;;4.90;99.90;;;;;;5116990;28;20217;-83
2023/01/26 03:59:06;;;;;;;44.08;24.42;;;4.90;99.90;;;;;;5116875;28;20227;-83
2023/01/26 04:09:56;;;;;;;40.63;22.98;;;4.70;99.90;;;;;;5116182;28;20730;-82
2023/01/26 04:12:22;;;;;;;41.77;22.60;;;4.80;99.90;;;;;;5116250;28;20188;-85
2023/01/26 04:23:00;;;;;;;36.60;20.77;;;5.40;99.90;;;;;;5116353;28;20210;-84
2023/01/26 04:25:26;;;;;;;39.87;22.23;;;5.50;99.90;;;;;;5116012;28;20259;-82
2023/01/26 04:27:51;;;;;;;41.67;21.53;;;5.60;99.90;;;;;;5115954;28;20191;-83
2023/01/26 04:30:18;;;;;;;35.10;21.17;;;5.70;99.90;;;;;;5097682;28;20263;-82
2023/01/26 04:32:45;;;;;;;33.80;21.08;;;5.80;99.90;;;;;;5115828;28;20667;-82
2023/01/26 04:35:11;;;;;;;37.33;21.15;;;5.90;99.90;;;;;;5097592;28;20263;-82
2023/01/26 04:37:37;;;;;;;37.97;21.15;;;5.90;99.90;;;;;;5097474;28;20195;-82
2023/01/26 04:40:03;;;;;;;38.85;21.95;;;5.80;99.90;;;;;;5097725;28;20180;-83
2023/01/26 04:42:29;;;;;;;39.67;22.10;;;5.80;99.90;;;;;;5097421;28;20195;-84
2023/01/26 04:44:55;;;;;;;43.50;22.67;;;5.70;99.90;;;;;;5097674;28;20188;-84
2023/01/26 04:47:21;;;;;;;35.53;20.53;;;5.60;99.90;;;;;;5115546;28;20391;-82
2023/01/26 04:49:47;;;;;;;35.65;19.67;;;5.70;99.90;;;;;;5096149;28;20222;-83
2023/01/26 04:52:13;;;;;;;36.43;21.47;;;5.70;99.90;;;;;;5097218;28;20542;-84
2023/01/26 04:54:39;;;;;;;34.27;19.40;;;5.70;99.90;;;;;;5115876;28;20799;-83
2023/01/26 04:57:05;;;;;;;31.08;15.90;;;5.60;99.90;;;;;;5097129;28;20224;-83
2023/01/26 04:59:31;;;;;;;29.10;14.57;;;5.60;99.90;;;;;;5097340;28;20593;-82
2023/01/26 05:01:57;;;;;;;24.27;13.80;;;5.60;99.90;;;;;;5115659;28;20164;-86
2023/01/26 05:04:23;;;;;;;28.70;16.17;;;5.50;99.90;;;;;;5097486;28;20180;-82
2023/01/26 05:06:48;;;;;;;26.60;16.50;;;5.50;99.90;;;;;;5096770;28;20183;-85
2023/01/26 05:09:14;;;;;;;29.00;16.23;;;5.40;99.90;;;;;;5114737;28;20513;-85
2023/01/26 05:11:40;;;;;;;24.30;15.80;;;5.40;99.90;;;;;;5115182;28;20179;-83
2023/01/26 05:14:05;;;;;;;32.00;16.30;;;5.40;99.90;;;;;;5096805;28;20294;-82
2023/01/26 05:16:31;;;;;;;29.90;16.20;;;5.40;99.90;;;;;;5096781;28;20271;-82
2023/01/26 05:18:57;;;;;;;31.10;17.30;;;5.50;99.90;;;;;;5115285;28;20699;-82
2023/01/26 05:21:23;;;;;;;31.03;17.40;;;5.50;99.90;;;;;;5115004;28;20178;-82
2023/01/26 05:23:50;;;;;;;30.77;16.52;;;5.60;99.90;;;;;;5114890;28;20215;-82
2023/01/26 05:26:16;;;;;;;28.63;15.52;;;5.60;99.90;;;;;;5096668;28;20203;-84
2023/01/26 05:28:41;;;;;;;28.90;16.13;;;5.60;99.90;;;;;;5113929;28;20254;-82
2023/01/26 05:31:07;;;;;;;25.42;15.85;;;5.50;99.90;;;;;;5113183;28;20168;-82
2023/01/26 05:33:33;;;;;;;27.70;15.57;;;5.50;99.90;;;;;;5076195;28;20291;-85
2023/01/26 05:36:04;;;;;;;24.77;16.40;;;5.50;99.90;;;;;;5094178;28;20637;-83
2023/01/26 05:38:29;;;;;;;25.27;14.82;;;5.30;99.90;;;;;;5094006;28;20200;-82
2023/01/26 05:40:55;;;;;;;27.67;15.23;;;5.30;99.90;;;;;;5076080;28;20176;-82
2023/01/26 05:43:21;;;;;;;26.20;15.10;;;5.20;99.90;;;;;;5094115;28;20278;-85
2023/01/26 05:45:46;;;;;;;25.87;15.83;;;5.10;99.90;;;;;;5094124;28;20180;-84
2023/01/26 05:48:12;;;;;;;25.40;14.73;;;5.00;99.90;;;;;;5075832;28;20196;-85
2023/01/26 05:50:38;;;;;;;26.77;17.23;;;4.90;99.90;;;;;;5093945;28;20204;-82
2023/01/26 05:53:03;;;;;;;25.27;15.03;;;4.90;99.90;;;;;;5104817;28;20681;-83
2023/01/26 05:55:29;;;;;;;24.30;13.70;;;4.90;99.90;;;;;;5093135;28;20188;-85
2023/01/26 05:57:55;;;;;;;75.20;39.53;;;4.80;99.90;;;;;;5092559;28;20629;-82
2023/01/26 06:00:21;;;;;;;39.13;23.17;;;4.70;99.90;;;;;;5078648;28;20632;-82
2023/01/26 06:02:46;;;;;;;27.77;16.40;;;4.60;99.90;;;;;;5095893;28;20215;-85
2023/01/26 06:05:12;;;;;;;21.67;14.03;;;4.60;99.90;;;;;;5114230;28;20738;-81
2023/01/26 06:07:38;;;;;;;28.93;17.40;;;4.60;99.90;;;;;;5095729;28;20202;-87
2023/01/26 06:10:04;;;;;;;26.80;16.63;;;4.50;99.90;;;;;;5113753;28;20231;-85
2023/01/26 06:12:34;;;;;;;23.85;15.10;;;4.40;99.90;;;;;;5112675;28;20280;-83
2023/01/26 06:15:01;;;;;;;29.98;17.63;;;4.30;99.90;;;;;;5091071;28;20206;-86
2023/01/26 06:17:27;;;;;;;27.65;15.48;;;4.20;99.90;;;;;;5091567;28;20204;-83
2023/01/26 06:19:52;;;;;;;29.77;15.87;;;4.30;99.90;;;;;;5092513;28;20694;-82
2023/01/26 06:22:18;;;;;;;34.37;20.47;;;4.40;99.90;;;;;;5094516;28;20485;-86
2023/01/26 06:24:45;;;;;;;28.15;17.48;;;4.50;99.90;;;;;;5113888;28;20176;-83
2023/01/26 06:27:13;;;;;;;27.83;17.90;;;4.50;99.90;;;;;;5113833;28;20199;-85
2023/01/26 06:29:39;;;;;;;32.28;17.35;;;4.40;99.90;;;;;;5112633;28;20856;-82
2023/01/26 06:32:05;;;;;;;26.10;16.08;;;4.40;99.90;;;;;;5091052;28;20611;-83
2023/01/26 06:34:32;;;;;;;23.55;15.45;;;4.50;99.90;;;;;;5112591;28;20194;-86
2023/01/26 06:36:58;;;;;;;28.98;16.60;;;4.50;99.90;;;;;;5092955;28;20180;-85
2023/01/26 06:39:23;;;;;;;31.63;17.60;;;4.40;99.90;;;;;;5110009;28;20195;-86
2023/01/26 06:41:49;;;;;;;35.23;22.17;;;4.40;99.90;;;;;;5107803;28;20181;-84
2023/01/26 06:44:15;;;;;;;23.50;14.65;;;4.40;99.90;;;;;;5092726;28;20177;-86
2023/01/26 06:46:41;;;;;;;27.47;15.40;;;4.40;99.90;;;;;;5095509;28;20658;-85
2023/01/26 06:49:07;;;;;;;24.93;15.60;;;4.40;99.90;;;;;;5086005;28;20224;-85
2023/01/26 06:51:46;;;;;;;27.35;16.15;;;4.40;99.90;;;;;;5106011;28;20275;-85
2023/01/26 06:54:13;;;;;;;29.65;16.85;;;4.50;99.90;;;;;;5107318;28;20186;-81
2023/01/26 06:56:39;;;;;;;24.80;16.33;;;4.60;99.90;;;;;;5088586;28;20275;-85
2023/01/26 06:59:05;;;;;;;26.70;16.80;;;4.70;99.90;;;;;;5084820;28;20353;-85
2023/01/26 07:01:38;;;;;;;28.70;15.95;;;4.70;99.90;;;;;;5085041;28;20263;-82
2023/01/26 07:04:04;;;;;;;27.98;17.75;;;4.70;99.90;;;;;;5112342;28;20206;-86
2023/01/26 07:06:29;;;;;;;33.27;16.67;;;4.60;99.90;;;;;;5111127;28;20188;-84
2023/01/26 07:08:55;;;;;;;26.50;17.43;;;4.70;99.90;;;;;;5075256;28;20225;-82
2023/01/26 07:11:21;;;;;;;32.53;18.90;;;4.70;99.90;;;;;;5069768;28;20189;-84
2023/01/26 07:13:47;;;;;;;28.10;17.20;;;4.60;99.90;;;;;;5073932;28;20201;-85
2023/01/26 07:16:15;;;;;;;27.50;16.00;;;4.50;99.90;;;;;;5074280;28;20276;-81
2023/01/26 07:18:41;;;;;;;27.58;15.70;;;4.60;99.90;;;;;;5072675;28;20303;-83
2023/01/26 07:21:15;;;;;;;30.15;16.30;;;4.70;99.90;;;;;;5077189;28;20230;-85
2023/01/26 07:23:43;;;;;;;28.35;15.70;;;4.70;99.90;;;;;;5081275;28;20204;-86
2023/01/26 07:26:09;;;;;;;24.90;13.95;;;4.60;99.90;;;;;;5090552;28;20249;-85
2023/01/26 07:28:35;;;;;;;25.83;16.90;;;4.60;99.90;;;;;;5075268;28;20213;-83
2023/01/26 07:31:01;;;;;;;31.17;19.03;;;4.50;99.90;;;;;;5072248;28;20288;-83
2023/01/26 07:33:31;;;;;;;28.67;18.35;;;4.50;99.90;;;;;;5082862;28;20240;-81
2023/01/26 07:35:58;;;;;;;32.58;18.73;;;4.60;99.90;;;;;;5085056;28;20199;-81
2023/01/26 07:38:25;;;;;;;28.42;18.20;;;4.50;99.90;;;;;;5091941;28;20300;-81
2023/01/26 07:40:51;;;;;;;71.97;42.88;;;4.60;99.90;;;;;;5089101;28;20227;-85
2023/01/26 07:43:17;;;;;;;56.70;31.30;;;4.70;99.90;;;;;;5084683;28;20204;-82
2023/01/26 07:45:51;;;;;;;35.78;19.60;;;4.70;99.90;;;;;;5094401;28;20185;-84
2023/01/26 07:48:23;;;;;;;28.70;17.58;;;4.70;99.90;;;;;;5092100;28;20196;-82
2023/01/26 07:50:49;;;;;;;27.38;14.98;;;4.70;99.90;;;;;;5089962;28;20307;-85
2023/01/26 07:53:18;;;;;;;28.55;17.95;;;4.70;99.90;;;;;;5080898;28;20196;-81
2023/01/26 07:55:44;;;;;;;31.85;21.27;;;4.70;99.90;;;;;;5081467;28;20181;-85
2023/01/26 07:58:10;;;;;;;36.83;20.88;;;4.80;99.90;;;;;;5087767;28;20212;-81
2023/01/26 08:00:36;;;;;;;38.65;20.98;;;4.80;99.90;;;;;;5088603;28;20188;-82
2023/01/26 08:03:02;;;;;;;36.50;21.40;;;4.80;99.90;;;;;;5089154;28;20612;-82
2023/01/26 08:05:28;;;;;;;34.80;21.10;;;4.80;99.90;;;;;;5085959;28;20185;-83
2023/01/26 08:08:00;;;;;;;31.07;22.00;;;4.80;99.90;;;;;;5093072;28;20784;-85
2023/01/26 08:10:30;;;;;;;30.85;20.85;;;4.80;99.90;;;;;;5110868;28;20647;-82
2023/01/26 08:12:57;;;;;;;35.80;20.42;;;4.90;99.90;;;;;;5090384;28;20192;-85
2023/01/26 08:15:23;;;;;;;33.90;20.35;;;4.80;99.90;;;;;;5099490;28;20180;-82
2023/01/26 08:17:49;;;;;;;31.03;19.63;;;4.80;99.90;;;;;;5112452;28;20749;-85
2023/01/26 08:20:15;;;;;;;27.97;17.80;;;4.80;99.90;;;;;;5095324;28;20395;-84
2023/01/26 08:22:40;;;;;;;27.03;16.93;;;4.90;99.90;;;;;;5091907;28;20215;-81
2023/01/26 08:25:06;;;;;;;30.77;16.73;;;4.90;99.90;;;;;;5098171;28;20402;-84
2023/01/26 08:27:32;;;;;;;30.47;15.60;;;4.90;99.90;;;;;;5105359;28;20239;-85
2023/01/26 08:29:58;;;;;;;21.93;13.97;;;4.90;99.90;;;;;;5114498;28;20544;-82
2023/01/26 08:32:24;;;;;;;21.70;13.13;;;4.80;99.90;;;;;;5091253;28;20211;-82
2023/01/26 08:34:50;;;;;;;26.60;14.40;;;4.80;99.90;;;;;;5112194;28;20549;-85
2023/01/26 08:37:16;;;;;;;19.83;13.60;;;4.80;99.90;;;;;;5114201;28;20461;-85
2023/01/26 08:39:41;;;;;;;23.00;14.73;;;4.90;99.90;;;;;;5097163;28;20177;-82
2023/01/26 08:42:07;;;;;;;27.93;16.67;;;5.00;99.90;;;;;;5090350;28;20199;-86
2023/01/26 08:44:32;;;;;;;26.47;16.13;;;5.00;99.90;;;;;;5100824;28;20657;-85
2023/01/26 08:46:58;;;;;;;27.87;16.30;;;5.00;99.90;;;;;;5089636;28;20382;-86
2023/01/26 08:49:24;;;;;;;26.00;15.90;;;5.10;99.90;;;;;;5088900;28;20203;-85
2023/01/26 08:51:49;;;;;;;21.17;13.70;;;5.00;99.90;;;;;;5081073;28;20594;-85
2023/01/26 08:54:15;;;;;;;24.30;13.30;;;5.00;99.90;;;;;;5083197;28;20186;-85
2023/01/26 08:56:41;;;;;;;24.17;14.13;;;5.00;99.90;;;;;;5100395;28;20186;-83
2023/01/26 08:59:06;;;;;;;22.17;13.03;;;5.10;99.90;;;;;;5088305;28;20282;-85
2023/01/26 09:01:32;;;;;;;24.33;14.17;;;5.10;99.90;;;;;;5089871;28;20187;-84
2023/01/26 09:03:58;;;;;;;29.17;15.20;;;5.10;99.90;;;;;;5091052;28;20534;-85
2023/01/26 09:06:24;;;;;;;22.07;13.30;;;5.10;99.90;;;;;;5084722;28;20711;-84
2023/01/26 09:08:49;;;;;;;24.42;13.73;;;5.10;99.90;;;;;;5088864;28;20231;-85
2023/01/26 09:11:15;;;;;;;23.33;14.17;;;5.20;99.90;;;;;;5106070;28;20323;-83
2023/01/26 09:13:41;;;;;;;21.00;13.03;;;5.20;99.90;;;;;;5098532;28;20282;-85
2023/01/26 09:16:16;;;;;;;21.17;13.27;;;5.20;99.90;;;;;;5082309;28;20671;-83
2023/01/26 09:18:42;;;;;;;21.42;12.70;;;5.30;99.90;;;;;;5080806;28;20452;-86
2023/01/26 09:21:08;;;;;;;18.90;12.33;;;5.30;99.90;;;;;;5079003;28;20699;-82
2023/01/26 09:23:35;;;;;;;24.17;14.07;;;5.30;99.90;;;;;;5089306;28;20211;-82
2023/01/26 09:26:01;;;;;;;26.00;14.10;;;5.30;99.90;;;;;;5090691;28;20604;-85
2023/01/26 09:28:28;;;;;;;24.55;14.90;;;5.30;99.90;;;;;;5102835;28;20192;-85
2023/01/26 09:30:54;;;;;;;23.85;13.60;;;5.30;99.90;;;;;;5076969;28;20200;-86
2023/01/26 09:33:21;;;;;;;24.93;15.13;;;5.20;99.90;;;;;;5087457;28;20210;-83
2023/01/26 09:35:48;;;;;;;24.83;14.60;;;5.20;99.90;;;;;;5086997;28;20478;-82
2023/01/26 09:38:14;;;;;;;28.38;16.15;;;5.20;99.90;;;;;;5085985;28;20566;-82
2023/01/26 09:40:45;;;;;;;27.47;13.70;;;5.20;99.90;;;;;;5100800;28;20223;-87
2023/01/26 09:43:46;;;;;;;17.73;11.77;;;5.30;99.90;;;;;;5086508;28;20203;-83
2023/01/26 09:46:38;;;;;;;24.98;14.20;;;5.30;99.90;;;;;;5084589;28;20278;-89
2023/01/26 09:49:17;;;;;;;21.92;12.88;;;5.30;99.90;;;;;;5101820;28;20225;-89
2023/01/26 09:51:56;;;;;;;23.10;13.95;;;5.30;99.90;;;;;;5107338;28;20233;-82
2023/01/26 09:54:22;;;;;;;22.25;11.73;;;5.40;99.90;;;;;;5087312;28;20190;-89
2023/01/26 09:56:47;;;;;;;19.43;11.90;;;5.40;99.90;;;;;;5106513;28;20677;-83
2023/01/26 09:59:30;;;;;;;21.93;13.33;;;5.50;99.90;;;;;;5084698;28;20191;-82
2023/01/26 10:02:17;;;;;;;19.55;11.63;;;5.50;99.90;;;;;;5077277;28;20173;-90
2023/01/26 10:04:47;;;;;;;26.08;14.75;;;5.50;99.90;;;;;;5102645;28;20440;-84
2023/01/26 10:07:14;;;;;;;33.00;21.08;;;5.60;99.90;;;;;;5085516;28;20207;-81
2023/01/26 10:09:44;;;;;;;15.40;11.48;;;5.60;99.90;;;;;;5077009;28;20288;-90
2023/01/26 10:12:27;;;;;;;17.45;10.48;;;5.60;99.90;;;;;;5082723;28;20291;-89
2023/01/26 10:15:01;;;;;;;19.10;10.25;;;5.60;99.90;;;;;;5073521;28;20398;-89
2023/01/26 10:17:34;;;;;;;14.50;10.02;;;5.50;99.90;;;;;;5076642;28;20687;-89
2023/01/26 10:20:18;;;;;;;22.27;10.52;;;5.50;99.90;;;;;;5077213;28;20561;-89
2023/01/26 10:22:47;;;;;;;16.48;10.60;;;5.50;99.90;;;;;;5083609;28;20562;-89
2023/01/26 10:25:19;;;;;;;18.10;11.30;;;5.50;99.90;;;;;;5087373;28;20199;-89
2023/01/26 10:27:45;;;;;;;18.27;10.45;;;5.50;99.90;;;;;;5086359;28;20593;-88
2023/01/26 10:30:13;;;;;;;15.13;9.88;;;5.50;99.90;;;;;;5087478;28;20208;-88
2023/01/26 10:32:42;;;;;;;13.25;9.25;;;5.50;99.90;;;;;;5085482;28;20877;-83
2023/01/26 10:35:17;;;;;;;13.25;9.80;;;5.50;99.90;;;;;;5079373;28;20605;-82
2023/01/26 10:37:43;;;;;;;15.20;10.02;;;5.50;99.90;;;;;;5084673;28;20252;-83
2023/01/26 10:40:09;;;;;;;17.27;10.23;;;5.50;99.90;;;;;;5087465;28;20611;-83
2023/01/26 10:42:36;;;;;;;35.45;19.60;;;5.50;99.90;;;;;;5083037;28;20215;-83
2023/01/26 10:45:06;;;;;;;21.90;12.80;;;5.40;99.90;;;;;;5080472;28;20185;-83
2023/01/26 10:47:32;;;;;;;18.95;10.45;;;5.40;99.90;;;;;;5086301;28;20680;-89
2023/01/26 10:50:20;;;;;;;19.60;11.70;;;5.50;99.90;;;;;;5091385;28;20212;-88
2023/01/26 10:52:57;;;;;;;14.05;9.95;;;5.60;99.90;;;;;;5085402;28;20677;-83
2023/01/26 10:55:23;;;;;;;14.63;9.40;;;5.60;99.90;;;;;;5095149;28;20229;-89
2023/01/26 10:57:49;;;;;;;16.80;11.10;;;5.60;99.90;;;;;;5088793;28;20283;-88
2023/01/26 11:00:27;;;;;;;13.53;9.17;;;5.60;99.90;;;;;;5081051;28;20700;-89
2023/01/26 11:03:25;;;;;;;17.08;9.77;;;5.70;99.90;;;;;;5084002;28;21021;-89
2023/01/26 11:06:14;;;;;;;16.65;9.63;;;5.70;99.90;;;;;;5079951;28;20212;-89
2023/01/26 11:08:41;;;;;;;38.05;19.20;;;5.60;99.90;;;;;;5087444;28;20654;-86
2023/01/26 11:11:28;;;;;;;17.25;9.70;;;5.70;99.90;;;;;;5087712;28;20669;-89
2023/01/26 11:14:17;;;;;;;17.75;11.60;;;5.80;99.90;;;;;;5088081;28;20234;-83
2023/01/26 11:17:23;;;;;;;12.57;9.25;;;5.90;99.90;;;;;;5094324;28;20233;-86
2023/01/26 11:20:05;;;;;;;12.75;9.18;;;5.90;99.90;;;;;;5115214;28;20175;-89
2023/01/26 11:22:54;;;;;;;16.40;10.10;;;6.00;99.90;;;;;;5091139;28;20208;-88
2023/01/26 11:25:24;;;;;;;14.55;10.02;;;6.10;99.90;;;;;;5089831;28;20188;-89
2023/01/26 11:28:12;;;;;;;15.02;10.52;;;6.10;99.90;;;;;;5105281;28;20382;-88
2023/01/26 11:30:38;;;;;;;13.10;8.90;;;6.10;99.90;;;;;;5079805;28;20599;-88
2023/01/26 11:33:34;;;;;;;13.37;8.97;;;6.20;99.90;;;;;;5092110;28;20195;-89
2023/01/26 11:36:12;;;;;;;13.32;8.63;;;6.20;99.90;;;;;;5111998;28;20206;-88
2023/01/26 11:39:17;;;;;;;14.90;9.57;;;6.20;99.90;;;;;;5112890;28;20287;-84
2023/01/26 11:41:52;;;;;;;21.38;10.15;;;6.20;99.90;;;;;;5088333;28;20736;-89
2023/01/26 11:44:27;;;;;;;14.45;9.23;;;6.20;99.90;;;;;;5100363;28;20737;-84
2023/01/26 11:47:16;;;;;;;12.90;9.13;;;6.20;99.90;;;;;;5102457;28;20236;-89
2023/01/26 11:50:00;;;;;;;14.32;9.45;;;6.20;99.90;;;;;;5102047;28;20209;-90
2023/01/26 11:52:34;;;;;;;13.63;10.25;;;6.20;99.90;;;;;;5101854;28;20199;-85
2023/01/26 11:55:26;;;;;;;19.23;11.13;;;6.20;99.90;;;;;;5082821;28;20561;-89
2023/01/26 11:58:10;;;;;;;17.15;9.80;;;6.20;99.90;;;;;;5087262;28;20677;-89
2023/01/26 12:00:53;;;;;;;12.02;7.65;;;6.30;99.90;;;;;;5106568;28;20202;-89
2023/01/26 12:03:24;;;;;;;13.98;9.90;;;6.30;99.90;;;;;;5083237;28;20207;-83
2023/01/26 12:06:00;;;;;;;14.80;10.30;;;6.30;99.90;;;;;;5101647;28;20892;-90
2023/01/26 12:08:37;;;;;;;13.70;9.77;;;6.20;99.90;;;;;;5100830;28;20219;-83
2023/01/26 12:11:22;;;;;;;21.02;10.98;;;6.20;99.90;;;;;;5105617;28;20225;-83
2023/01/26 12:14:07;;;;;;;15.07;9.77;;;6.30;99.90;;;;;;5105767;28;20204;-89
2023/01/26 12:16:41;;;;;;;17.83;12.32;;;6.40;99.90;;;;;;5081997;28;20184;-83
2023/01/26 12:19:22;;;;;;;20.73;11.98;;;6.40;99.90;;;;;;5098667;28;20207;-89
2023/01/26 12:21:50;;;;;;;20.20;12.45;;;6.40;99.90;;;;;;5103310;28;20326;-89
2023/01/26 12:24:26;;;;;;;17.52;10.48;;;6.50;99.90;;;;;;5084461;28;20184;-84
2023/01/26 12:26:53;;;;;;;18.48;11.55;;;6.40;99.90;;;;;;5106927;28;20175;-83
2023/01/26 12:29:33;;;;;;;23.00;11.70;;;6.50;99.90;;;;;;5100311;28;20199;-84
2023/01/26 12:32:11;;;;;;;18.98;12.15;;;6.50;99.90;;;;;;5081488;28;20406;-84
2023/01/26 12:34:37;;;;;;;22.15;12.18;;;6.40;99.90;;;;;;5100776;28;20172;-82
2023/01/26 12:37:37;;;;;;;17.50;11.55;;;6.40;99.90;;;;;;5084886;28;20191;-89
2023/01/26 12:40:14;;;;;;;17.75;9.63;;;6.50;99.90;;;;;;5101864;28;20250;-83
2023/01/26 12:42:48;;;;;;;19.63;11.20;;;6.50;99.90;;;;;;5086958;28;20783;-83
2023/01/26 12:45:27;;;;;;;16.85;9.60;;;6.50;99.90;;;;;;5101518;28;20198;-82
2023/01/26 12:48:11;;;;;;;17.30;9.25;;;6.50;99.90;;;;;;5103872;28;20658;-90
2023/01/26 12:50:50;;;;;;;17.60;10.00;;;6.40;99.90;;;;;;5105820;28;20685;-84
2023/01/26 12:53:31;;;;;;;15.32;9.68;;;6.40;99.90;;;;;;5102308;28;20188;-89
2023/01/26 12:56:24;;;;;;;22.67;11.02;;;6.40;99.90;;;;;;5087517;28;20179;-83
2023/01/26 12:58:52;;;;;;;18.88;10.68;;;6.50;99.90;;;;;;5104958;28;20188;-90
2023/01/26 13:01:21;;;;;;;20.42;11.98;;;6.40;99.90;;;;;;5083634;28;20661;-84
2023/01/26 13:04:01;;;;;;;18.73;11.07;;;6.50;99.90;;;;;;5105339;28;20302;-83
2023/01/26 13:06:28;;;;;;;21.50;12.30;;;6.50;99.90;;;;;;5087791;28;20186;-83
2023/01/26 13:09:03;;;;;;;22.08;14.43;;;6.40;99.90;;;;;;5102528;28;20712;-82
2023/01/26 13:11:50;;;;;;;21.90;12.65;;;6.40;99.90;;;;;;5086791;28;20202;-81
2023/01/26 13:14:36;;;;;;;22.55;14.13;;;6.40;99.90;;;;;;5100924;28;20187;-88
2023/01/26 13:17:14;;;;;;;16.77;11.18;;;6.40;99.90;;;;;;5100509;27;20207;-88
2023/01/26 13:19:43;;;;;;;21.83;12.18;;;6.40;99.90;;;;;;5103533;28;20186;-88
2023/01/26 13:22:18;;;;;;;21.90;12.60;;;6.40;99.90;;;;;;5101968;28;20581;-82
2023/01/26 13:24:49;;;;;;;20.33;11.30;;;6.30;99.90;;;;;;5100013;28;20676;-82
2023/01/26 13:27:28;;;;;;;17.92;10.57;;;6.30;99.90;;;;;;5087741;28;20211;-89
2023/01/26 13:29:54;;;;;;;16.33;11.02;;;6.40;99.90;;;;;;5084173;28;20196;-87
2023/01/26 13:32:20;;;;;;;17.73;10.13;;;6.40;99.90;;;;;;5105628;28;20419;-81
2023/01/26 13:34:59;;;;;;;17.63;10.10;;;6.30;99.90;;;;;;5106159;28;20183;-81
2023/01/26 13:37:46;;;;;;;17.67;10.05;;;6.30;99.90;;;;;;5089271;28;20264;-88
2023/01/26 13:40:22;;;;;;;17.40;10.68;;;6.20;99.90;;;;;;5101387;28;20563;-89
2023/01/26 13:42:53;;;;;;;22.42;11.88;;;6.20;99.90;;;;;;5099414;28;20221;-82
2023/01/26 13:45:59;;;;;;;16.88;10.45;;;6.10;99.90;;;;;;5098992;28;20183;-82